Terminal Aerodrome Forecast
Issued by NWS Des Moines, IA

Home | Current Version | Previous Version | Text Only | Print | Product List | Glossary On
Versions: 1 2 3 4 5 6 7 8 9 10 11 12 13 14 15 16 17 18 19 20 21 22 23 24 25 26 27 28 29 30 31 32 33 34 35 36 37 38 39 40 41
170
FTUS43 KDMX 080116 AAA
TAFALO
TAF AMD
KALO 080116Z 0801/0824 27014KT P6SM BKN022
     FM080200 28019G26KT 6SM -SHSN BKN012 OVC020
     FM080500 30019G29KT 5SM -SHSN OVC020
     FM080800 32026G38KT 1SM -SHSN BLSN SCT006 OVC015
     FM081700 34022G32KT 1/2SM SHSN BLSN OVC010
     FM082300 33020G28KT 2SM BLSN OVC015=

USA.gov is the U.S. government's official web portal to all federal, state and local government web resources and services.